Home   Weather   United Kingdom   Falkirk   Past weeks
Flag for United Kingdom

Past Weather in Falkirk, Scotland, United Kingdom — Yesterday and Last 2 Weeks

Currently: 61 °F. Sunny. (Weather station: Edinburgh Airport, United Kingdom). See more current weather

Past Weather in Falkirk — Graph

°F

Falkirk Temperature Yesterday

Maximum temperature yesterday: 77 °F (at 1:20 pm)
Minimum temperature yesterday: 55 °F (at 11:50 pm)
Average temperature yesterday: 67 °F

High & Low Weather Summary for the Past Weeks

 TemperatureHumidityPressure
High77 °F (Aug 9, 1:20 pm)100% (Jul 28, 3:20 am)30.39 "Hg (Jul 28, 3:20 am)
Low43 °F (Jul 27, 3:20 am)35% (Aug 5, 3:50 pm)29.56 "Hg (Aug 2, 7:20 am)
Average61 °F73%30.05 "Hg
* Reported Jul 26 7:20 am — Aug 10 7:50 am, Falkirk. Weather by CustomWeather, © 2022

Note: Actual official high and low records may vary slightly from our data, if they occured in-between our weather recording intervals... More about our weather records

Falkirk Weather History for the Previous 24 Hours

Scroll right to see more
 ConditionsComfort  
Time TempWeatherWind HumidityBarometerVisibility
7:50 am
Wed, Aug 10
61 °FSunny.1 mph83%30.30 "Hg10 mi
6:50 am52 °FSunny.1 mph100%30.30 "Hg10 mi
6:20 am52 °FSunny.1 mph94%30.30 "Hg10 mi
5:50 am48 °FLight fog.1 mph100%30.30 "HgN/A
5:20 am48 °FFog.1 mph100%30.30 "HgN/A
4:50 am50 °FFog.No wind94%30.30 "HgN/A
4:20 am50 °FClear.1 mph94%30.33 "Hg10 mi
3:20 am54 °FClear.1 mph94%30.33 "Hg10 mi
2:50 am52 °FClear.2 mph94%30.33 "Hg10 mi
2:20 am54 °FClear.1 mph94%30.33 "Hg10 mi
1:50 am55 °FClear.3 mph88%30.33 "Hg10 mi
11:50 pm
Tue, Aug 9
55 °FClear.5 mph88%30.36 "Hg10 mi
11:20 pm57 °FClear.5 mph88%30.33 "Hg10 mi
10:50 pm57 °FClear.1 mph88%30.36 "Hg10 mi
10:20 pm61 °FClear.3 mph77%30.36 "Hg10 mi
9:50 pm61 °FClear.5 mph77%30.36 "Hg10 mi
9:20 pm66 °FClear.5 mph64%30.36 "Hg10 mi
8:50 pm68 °FSunny.6 mph60%30.33 "Hg10 mi
8:20 pm70 °FSunny.7 mph57%30.33 "Hg10 mi
7:50 pm72 °FPassing clouds.7 mph57%30.33 "HgN/A
7:20 pm72 °FSunny.9 mph57%30.36 "Hg10 mi
6:50 pm72 °FPassing clouds.8 mph57%30.33 "HgN/A
6:20 pm73 °FPassing clouds.9 mph47%30.33 "HgN/A
5:50 pm73 °FPassing clouds.9 mph50%30.33 "HgN/A
5:20 pm75 °FScattered clouds.12 mph47%30.33 "HgN/A
4:50 pm77 °FScattered clouds.14 mph47%30.33 "HgN/A
4:20 pm77 °FScattered clouds.15 mph47%30.36 "HgN/A
3:50 pm77 °FScattered clouds.14 mph47%30.36 "HgN/A
3:20 pm77 °FPartly sunny.15 mph47%30.36 "HgN/A
2:20 pm77 °FScattered clouds.15 mph47%30.36 "HgN/A
1:50 pm75 °FScattered clouds.13 mph54%30.36 "HgN/A
1:20 pm77 °FPassing clouds.14 mph47%30.36 "HgN/A
12:50 pm75 °FScattered clouds.13 mph50%30.36 "HgN/A
12:20 pm73 °FPassing clouds.13 mph53%30.36 "HgN/A
11:50 am73 °FPassing clouds.13 mph53%30.36 "HgN/A
11:20 am73 °FPassing clouds.14 mph53%30.39 "HgN/A
10:50 am72 °FSunny.12 mph57%30.36 "Hg10 mi
10:20 am68 °FPassing clouds.8 mph69%30.39 "HgN/A
9:50 am68 °FPassing clouds.12 mph69%30.39 "HgN/A
9:20 am68 °FPassing clouds.9 mph69%30.39 "HgN/A
Weather by CustomWeather, © 2022

See weather overview